METAR stanice u blizini

 

LYBE - Beograd / Surčin, Srbija
Ažurirano: 18/05/2022 15:00
Vedro
Vedro
 Pravac vetra S
Vetar: S 26 km/h
Temperatura: 20°C
Tačka rose: -1°C
Vlažnost: 24%
Pritisak: 1024 hPa
Pregled: Vedro
Vidljivost: greater than 10 km
2022/05/18 13:00 LYBE 181300Z 01014KT 330V060 CAVOK 20/M01 Q1024 NOSIG
LYBT - Beograd / Batajnica, Srbija
Ažurirano: 18/05/2022 15:00
Vedro
Vedro
 Pravac vetra SZ
Vetar: SZ 28 km/h
Temperatura: 20°C
Tačka rose: -2°C
Vlažnost: 23%
Pritisak: 1024 hPa
Pregled: Vedro
Vidljivost: greater than 10 km
2022/05/18 13:00 LYBT 181300Z 32015KT 290V350 CAVOK 20/M02 Q1024 NOSIG
LYVR - Vršac, Srbija
Ažurirano: 18/05/2022 15:00
Vedro
Vedro
 Pravac vetra S
Vetar: S 28 km/h, Maks.: 54 km/h
Temperatura: 20°C
Tačka rose: 1°C
Vlažnost: 28%
Pritisak: 1023 hPa
Pregled: Vedro
Vidljivost: greater than 10 km
2022/05/18 13:00 LYVR 181300Z 01015G29KT CAVOK 20/01 Q1023 NOSIG
 
LYKV - Lađevci, Srbija
Ažurirano: 18/05/2022 15:00
Partly Cloudy
Partly Cloudy
 Pravac vetra SZ
Vetar: SZ 22 km/h
Temperatura: 20°C
Tačka rose: 4°C
Vlažnost: 35%
Pritisak: 1023 hPa
Oblaci: Partly Cloudy
Vidljivost: 10 km
Cloud details: Partly Cloudy 1372 m
2022/05/18 13:00 LYKV 181300Z 32012KT 270V020 9999 SCT045 20/04 Q1023 NOSIG
LYNI - Niš, Srbija
Ažurirano: 18/05/2022 15:00
Few Clouds
Few Clouds
 Pravac vetra SZ
Vetar: SZ 46 km/h
Temperatura: 21°C
Tačka rose: -4°C
Vlažnost: 18%
Pritisak: 1020 hPa
Oblaci: Few Clouds
Vidljivost: 10 km
Cloud details: Few Clouds 1219 m
2022/05/18 13:00 LYNI 181300Z 32025KT 290V350 9999 FEW040 21/M04 Q1020 NOSIG
BKPR - Priština, Srbija
Ažurirano: 18/05/2022 15:30
Partly Cloudy
Partly Cloudy
 Pravac vetra SSZ
Vetar: SSZ 15 km/h
Temperatura: 18°C
Tačka rose: 6°C
Vlažnost: 46%
Pritisak: 1021 hPa
Oblaci: Partly Cloudy
Vidljivost: 10 km
Cloud details: Partly Cloudy 1524 m
2022/05/18 13:30 BKPR 181330Z 34008KT 9999 SCT050 18/06 Q1021 NOSIG
 
LHPP - Pecs / Pogany, Hungary
Ažurirano: 18/05/2022 14:45
Vedro
Vedro
 Pravac vetra S
Vetar: S 13 km/h
Temperatura: 18°C
Tačka rose: 3°C
Vlažnost: 37%
Pritisak: 1027 hPa
Pregled: Vedro
Vidljivost: greater than 10 km
2022/05/18 12:45 LHPP 181245Z AUTO 36007KT 290V030 CAVOK 18/03 Q1027
LHUD - Szeged, Hungary
Ažurirano: 04/07/2019 01:45
NOT Current
Vedro
Vedro
 Pravac vetra S
Vetar: S 7 km/h
Temperatura: 18°C
Tačka rose: 13°C
Vlažnost: 73%
Pritisak: 1019 hPa
Pregled: Vedro
Vidljivost: greater than 10 km
2019/07/03 23:45 LHUD 032345Z 35004KT CAVOK 18/13 Q1019
LRTR - Timisoara, Romania
Ažurirano: 18/05/2022 15:00
Vedro
Vedro
 Pravac vetra S
Vetar: S 33 km/h
Temperatura: 19°C
Tačka rose: 0°C
Vlažnost: 28%
Pritisak: 1024 hPa
Pregled: Vedro
Vidljivost: greater than 10 km
2022/05/18 13:00 LRTR 181300Z 36018KT CAVOK 19/M00 Q1024
 
LRCV - Craiova, Romania
Ažurirano: 18/05/2022 15:00
Mostly Cloudy
Mostly Cloudy
 Pravac vetra JI
Vetar: JI 15 km/h
Temperatura: 13°C
Tačka rose: 7°C
Vlažnost: 67%
Pritisak: 1022 hPa
Oblaci: Mostly Cloudy
Vidljivost: 10 km
Cloud details: Few Clouds 914 m
Mostly Cloudy 1219 m
2022/05/18 13:00 LRCV 181300Z 13008KT 9999 FEW030 BKN040 13/07 Q1022
LBSF - Sofia, Bulgaria
Ažurirano: 18/05/2022 15:00
Mostly Cloudy
Mostly Cloudy
 Pravac vetra S
Vetar: S 11 km/h
Temperatura: 15°C
Tačka rose: 10°C
Vlažnost: 72%
Pritisak: 1019 hPa
Oblaci: Mostly Cloudy
Vidljivost: 10 km
Cloud details: Few Clouds 1158 m
Mostly Cloudy 1707 m
2022/05/18 13:00 LBSF 181300Z 36006KT 9999 FEW038 BKN056 15/10 Q1019 NOSIG
LWSK - Skoplje, Makedonija
Ažurirano: 18/05/2022 15:00
Partly Cloudy
Partly Cloudy
 Pravac vetra SSZ
Vetar: SSZ 24 km/h, Maks.: 43 km/h
Temperatura: 23°C
Tačka rose: 8°C
Vlažnost: 38%
Pritisak: 1019 hPa
Oblaci: Partly Cloudy
Vidljivost: 10 km
Cloud details: Few Clouds 1219 m
Partly Cloudy 2134 m
2022/05/18 13:00 LWSK 181300Z 34013G23KT 320V030 9999 FEW040 SCT070 23/08 Q1019 NOSIG
 
LYPG - Podgorica, Crna Gora
Ažurirano: 18/05/2022 15:00
Few Clouds
Few Clouds
 Pravac vetra SSI
Vetar: SSI 41 km/h, Maks.: 61 km/h
Temperatura: 25°C
Tačka rose: 6°C
Vlažnost: 30%
Pritisak: 1017 hPa
Oblaci: Few Clouds
Vidljivost: 10 km
Cloud details: Few Clouds 1524 m
2022/05/18 13:00 LYPG 181300Z 02022G33KT 9999 FEW050 25/06 Q1017 NOSIG
LQSA - Sarajevo, Bosna i Hercegovina
Ažurirano: 18/05/2022 15:00
Mostly Cloudy
Mostly Cloudy
 Pravac vetra varies
Vetar: varies 9 km/h
Temperatura: 19°C
Tačka rose: 7°C
Vlažnost: 46%
Pritisak: 1024 hPa
Oblaci: Mostly Cloudy
Vidljivost: 10 km
Cloud details: Mostly Cloudy 1524 m
2022/05/18 13:00 LQSA 181300Z VRB05KT 9999 BKN050 19/07 Q1024 NOSIG
LDOS - Osijek, Hrvatksa
Ažurirano: 18/05/2022 15:00
Vedro
Vedro
 Pravac vetra SSI
Vetar: SSI 22 km/h
Temperatura: 20°C
Tačka rose: 3°C
Vlažnost: 33%
Pritisak: 1026 hPa
Pregled: Vedro
Vidljivost: greater than 10 km
2022/05/18 13:00 LDOS 181300Z 02012KT 350V050 CAVOK 20/03 Q1026